Chicago, Illinois
Traffic Map
Current Weather Conditions
Chicago, Illinois
Overcast
Overcast
58°
Feels Like: 58°
Wind Chill: 58° Ceiling: 2200
Heat Index: 58° Visibility: 10mi
Dew Point: 48° Wind: 7mph
Humidity: 70% Direction: 90° (E)
Pressure: 30.02in Gusts: 0mph
Raw Report DataKMDW 010353Z 09006KT 10SM OVC022 14/09 A3002 RMK SLP165 T01440089
Traffic Incident Summary
Active as of:
Severity:
Category:
InformationThere was an issue retrieving the traffic information for this location. Please try a different location or try again shortly.
Advertisements
Track Severe Weather on mobile